createdAt,value
2023-08-21T00:00:40.813Z,17.19
2023-08-21T00:03:08.402Z,17.18
2023-08-21T00:05:35.022Z,17.14
2023-08-21T00:08:01.578Z,17.15
2023-08-21T00:10:28.143Z,17.05
2023-08-21T00:12:54.819Z,17.12
2023-08-21T00:15:21.508Z,17.11
2023-08-21T00:17:48.369Z,17.07
2023-08-21T00:20:14.996Z,17.07
2023-08-21T00:22:41.662Z,17.06
2023-08-21T00:25:08.443Z,17.01
2023-08-21T00:27:35.030Z,16.97
2023-08-21T00:30:01.581Z,16.99
2023-08-21T00:32:28.169Z,16.97
2023-08-21T00:34:54.722Z,16.95
2023-08-21T00:37:21.235Z,16.96
2023-08-21T00:39:47.734Z,16.96
2023-08-21T00:42:14.287Z,17.20
2023-08-21T00:44:40.875Z,18.97
2023-08-21T00:47:07.435Z,18.47
2023-08-21T00:49:34.131Z,17.80
2023-08-21T00:52:00.683Z,17.68
2023-08-21T00:54:27.256Z,17.65
2023-08-21T00:56:53.887Z,17.60
2023-08-21T00:59:20.896Z,17.57
2023-08-21T01:01:47.522Z,17.55
2023-08-21T01:04:14.029Z,17.52
2023-08-21T01:06:40.731Z,17.53
2023-08-21T01:09:21.375Z,17.53
2023-08-21T01:12:11.098Z,17.51
2023-08-21T01:14:37.607Z,17.47
2023-08-21T01:17:04.449Z,17.48
2023-08-21T01:19:41.880Z,17.33
2023-08-21T01:22:08.435Z,17.35
2023-08-21T01:24:35.028Z,17.38
2023-08-21T01:27:01.788Z,17.31
2023-08-21T01:29:28.431Z,17.32
2023-08-21T01:31:58.222Z,17.26
2023-08-21T01:34:24.838Z,17.23
2023-08-21T01:36:51.401Z,17.17
2023-08-21T01:39:17.903Z,17.21
2023-08-21T01:41:44.524Z,17.21
2023-08-21T01:44:11.042Z,17.15
2023-08-21T01:46:37.571Z,17.15
2023-08-21T01:49:04.141Z,17.14
2023-08-21T01:51:30.714Z,17.15
2023-08-21T01:53:57.301Z,17.12
2023-08-21T01:56:24.466Z,17.09
2023-08-21T01:58:50.992Z,17.11
2023-08-21T02:01:19.246Z,17.04
2023-08-21T02:03:46.272Z,17.08
2023-08-21T02:06:12.876Z,17.07
2023-08-21T02:08:39.543Z,17.04
2023-08-21T02:11:06.132Z,17.04
2023-08-21T02:13:34.139Z,17.04
2023-08-21T02:16:00.842Z,17.00
2023-08-21T02:18:27.443Z,16.96
2023-08-21T02:20:54.005Z,16.99
2023-08-21T02:23:20.560Z,17.00
2023-08-21T02:25:47.448Z,16.98
2023-08-21T02:28:13.979Z,16.97
2023-08-21T02:30:43.513Z,16.90
2023-08-21T02:33:10.174Z,16.92
2023-08-21T02:35:37.229Z,16.94
2023-08-21T02:38:03.888Z,16.93
2023-08-21T02:40:30.477Z,16.90
2023-08-21T02:42:57.051Z,17.94
2023-08-21T02:45:23.608Z,19.03
2023-08-21T02:47:50.152Z,18.10
2023-08-21T02:50:16.765Z,17.72
2023-08-21T02:52:43.364Z,17.65
2023-08-21T02:55:09.959Z,17.65
2023-08-21T02:57:36.547Z,17.58
2023-08-21T03:00:03.901Z,17.53
2023-08-21T03:02:30.577Z,17.51
2023-08-21T03:04:57.242Z,17.51
2023-08-21T03:07:23.793Z,17.49
2023-08-21T03:09:50.344Z,17.47
2023-08-21T03:12:16.918Z,17.36
2023-08-21T03:14:43.462Z,17.42
2023-08-21T03:17:10.000Z,17.35
2023-08-21T03:19:36.575Z,17.36
2023-08-21T03:22:03.131Z,17.31
2023-08-21T03:24:29.683Z,17.27
2023-08-21T03:26:56.329Z,17.28
2023-08-21T03:29:24.256Z,17.18
2023-08-21T03:31:50.901Z,17.17
2023-08-21T03:34:17.402Z,17.14
2023-08-21T03:36:43.922Z,17.15
2023-08-21T03:39:10.472Z,17.12
2023-08-21T03:41:37.002Z,17.09
2023-08-21T03:44:03.541Z,17.07
2023-08-21T03:46:30.151Z,17.09
2023-08-21T03:48:56.846Z,17.05
2023-08-21T03:51:23.339Z,17.06
2023-08-21T03:53:50.428Z,17.08
2023-08-21T03:56:17.061Z,17.08
2023-08-21T03:58:43.641Z,17.07
2023-08-21T04:01:10.252Z,16.94
2023-08-21T04:03:36.864Z,16.97
2023-08-21T04:06:03.458Z,16.97
2023-08-21T04:08:29.990Z,16.98
2023-08-21T04:11:00.416Z,16.93
2023-08-21T04:13:27.119Z,16.97
2023-08-21T04:15:54.717Z,16.90
2023-08-21T04:18:34.400Z,18.53
2023-08-21T04:21:05.865Z,18.90
2023-08-21T04:23:32.470Z,17.86
2023-08-21T04:26:03.012Z,17.64
2023-08-21T04:28:31.004Z,17.62
2023-08-21T04:30:59.030Z,17.58
2023-08-21T04:33:34.811Z,17.51
2023-08-21T04:36:01.446Z,17.52
2023-08-21T04:38:28.024Z,17.43
2023-08-21T04:40:54.576Z,17.45
2023-08-21T04:43:21.096Z,17.45
2023-08-21T04:45:51.778Z,17.41
2023-08-21T04:48:18.446Z,17.40
2023-08-21T04:50:45.013Z,17.33
2023-08-21T04:53:11.546Z,17.46
2023-08-21T04:55:38.215Z,19.05
2023-08-21T04:58:05.133Z,17.93
2023-08-21T05:00:31.910Z,17.69
2023-08-21T05:02:58.605Z,17.65
2023-08-21T05:05:25.425Z,17.62
2023-08-21T05:07:53.073Z,17.57
2023-08-21T05:10:19.642Z,17.52
2023-08-21T05:12:46.446Z,17.51
2023-08-21T05:15:13.020Z,17.50
2023-08-21T05:17:39.662Z,17.47
2023-08-21T05:20:06.365Z,17.37
2023-08-21T05:22:32.902Z,17.30
2023-08-21T05:24:59.455Z,17.24
2023-08-21T05:27:26.033Z,17.26
2023-08-21T05:29:52.590Z,17.18
2023-08-21T05:32:19.130Z,17.17
2023-08-21T05:34:46.103Z,17.07
2023-08-21T05:37:12.823Z,17.06
2023-08-21T05:39:39.365Z,17.05
2023-08-21T05:42:06.007Z,17.02
2023-08-21T05:44:32.539Z,16.94
2023-08-21T05:46:59.081Z,18.47
2023-08-21T05:49:25.936Z,19.30
2023-08-21T05:51:52.478Z,17.97
2023-08-21T05:54:19.139Z,17.65
2023-08-21T05:56:45.654Z,17.54
2023-08-21T05:59:13.053Z,17.52
2023-08-21T06:01:40.068Z,17.48
2023-08-21T06:04:06.658Z,17.46
2023-08-21T06:06:33.328Z,17.43
2023-08-21T06:08:59.802Z,17.42
2023-08-21T06:11:26.625Z,17.40
2023-08-21T06:13:53.219Z,17.40
2023-08-21T06:16:19.848Z,17.39
2023-08-21T06:18:46.602Z,17.41
2023-08-21T06:21:13.140Z,17.40
2023-08-21T06:23:39.677Z,17.37
2023-08-21T06:26:06.304Z,17.31
2023-08-21T06:28:32.889Z,17.25
2023-08-21T06:30:59.658Z,17.23
2023-08-21T06:33:26.393Z,17.20
2023-08-21T06:35:52.992Z,17.19
2023-08-21T06:38:19.543Z,17.20
2023-08-21T06:40:47.131Z,17.19
2023-08-21T06:43:13.723Z,17.15
2023-08-21T06:45:40.252Z,17.14
2023-08-21T06:48:06.980Z,17.04
2023-08-21T06:50:33.544Z,17.04
2023-08-21T06:53:00.081Z,17.04
2023-08-21T06:55:26.630Z,17.03
2023-08-21T06:57:53.107Z,17.03
2023-08-21T07:00:19.727Z,16.99
2023-08-21T07:02:46.633Z,16.94
2023-08-21T07:05:13.248Z,16.97
2023-08-21T07:07:39.929Z,17.06
2023-08-21T07:10:06.710Z,16.98
2023-08-21T07:12:33.349Z,17.02
2023-08-21T07:14:59.891Z,16.95
2023-08-21T07:17:26.428Z,16.94
2023-08-21T07:19:54.017Z,16.96
2023-08-21T07:22:21.606Z,16.96
2023-08-21T07:24:48.977Z,16.96
2023-08-21T07:27:15.505Z,16.97
2023-08-21T07:29:42.007Z,16.91
2023-08-21T07:32:08.569Z,16.98
2023-08-21T07:34:35.388Z,18.66
2023-08-21T07:37:01.929Z,18.88
2023-08-21T07:39:28.538Z,17.82
2023-08-21T07:41:55.080Z,17.64
2023-08-21T07:44:21.644Z,17.71
2023-08-21T07:46:48.252Z,17.63
2023-08-21T07:49:14.725Z,17.54
2023-08-21T07:51:41.241Z,17.56
2023-08-21T07:54:07.776Z,17.60
2023-08-21T07:56:34.420Z,17.56
2023-08-21T07:59:00.918Z,17.52
2023-08-21T08:01:27.549Z,17.45
2023-08-21T08:03:54.406Z,17.49
2023-08-21T08:06:21.006Z,17.46
2023-08-21T08:08:47.631Z,17.46
2023-08-21T08:11:14.173Z,17.36
2023-08-21T08:13:40.715Z,17.37
2023-08-21T08:16:07.286Z,17.35
2023-08-21T08:18:33.883Z,17.31
2023-08-21T08:21:00.456Z,17.28
2023-08-21T08:23:27.021Z,17.26
2023-08-21T08:25:54.343Z,17.23
2023-08-21T08:28:20.943Z,17.16
2023-08-21T08:30:47.530Z,17.15
2023-08-21T08:33:14.085Z,17.16
2023-08-21T08:35:41.889Z,17.09
2023-08-21T08:38:08.455Z,16.96
2023-08-21T08:40:35.238Z,17.08
2023-08-21T08:43:01.739Z,17.04
2023-08-21T08:45:34.474Z,17.01
2023-08-21T08:48:02.001Z,17.03
2023-08-21T08:50:32.109Z,16.99
2023-08-21T08:53:10.024Z,16.97
2023-08-21T08:55:41.587Z,17.01
2023-08-21T08:58:08.143Z,16.96
2023-08-21T09:00:34.684Z,16.92
2023-08-21T09:03:01.227Z,16.96
2023-08-21T09:05:27.771Z,16.93
2023-08-21T09:08:04.187Z,16.91
2023-08-21T09:10:30.718Z,16.89
2023-08-21T09:13:00.134Z,16.92
2023-08-21T09:15:38.467Z,16.85
2023-08-21T09:18:09.970Z,17.52
2023-08-21T09:20:37.156Z,19.09
2023-08-21T09:23:05.238Z,18.22
2023-08-21T09:25:41.432Z,17.70
2023-08-21T09:28:08.443Z,17.58
2023-08-21T09:30:47.942Z,17.54
2023-08-21T09:33:14.621Z,17.54
2023-08-21T09:35:42.889Z,17.52
2023-08-21T09:38:09.418Z,17.48
2023-08-21T09:40:36.139Z,17.48
2023-08-21T09:43:02.742Z,17.48
2023-08-21T09:45:30.095Z,17.44
2023-08-21T09:47:56.741Z,17.42
2023-08-21T09:50:23.553Z,17.42
2023-08-21T09:52:50.132Z,17.37
2023-08-21T09:55:16.693Z,17.39
2023-08-21T09:57:43.264Z,17.35
2023-08-21T10:00:16.614Z,17.33
2023-08-21T10:02:43.473Z,17.28
2023-08-21T10:05:10.763Z,17.22
2023-08-21T10:07:37.414Z,17.21
2023-08-21T10:10:04.255Z,17.23
2023-08-21T10:12:30.982Z,17.19
2023-08-21T10:14:57.552Z,17.14
2023-08-21T10:17:24.064Z,17.06
2023-08-21T10:19:56.530Z,17.03
2023-08-21T10:22:38.696Z,16.98
2023-08-21T10:25:05.590Z,17.06
2023-08-21T10:27:32.111Z,16.98
2023-08-21T10:29:59.342Z,17.03
2023-08-21T10:32:25.860Z,16.99
2023-08-21T10:34:52.822Z,16.98
2023-08-21T10:37:19.366Z,16.89
2023-08-21T10:40:07.519Z,16.95
2023-08-21T10:42:41.766Z,16.94
2023-08-21T10:45:11.883Z,16.99
2023-08-21T10:47:38.506Z,16.96
2023-08-21T10:50:07.838Z,16.91
2023-08-21T10:52:39.111Z,16.92
2023-08-21T10:55:06.026Z,16.89
2023-08-21T10:57:33.097Z,16.91
2023-08-21T11:00:10.339Z,17.02
2023-08-21T11:02:37.364Z,18.85
2023-08-21T11:05:04.742Z,18.52
2023-08-21T11:07:31.414Z,17.71
2023-08-21T11:09:58.163Z,17.60
2023-08-21T11:12:24.916Z,17.50
2023-08-21T11:14:51.562Z,17.53
2023-08-21T11:17:19.975Z,17.50
2023-08-21T11:19:47.911Z,17.44
2023-08-21T11:22:14.501Z,17.40
2023-08-21T11:24:44.169Z,17.39
2023-08-21T11:27:15.328Z,17.39
2023-08-21T11:29:42.815Z,17.37
2023-08-21T11:32:19.223Z,17.29
2023-08-21T11:34:52.858Z,17.29
2023-08-21T11:37:20.273Z,17.28
2023-08-21T11:39:50.925Z,17.28
2023-08-21T11:42:17.772Z,17.28
2023-08-21T11:44:45.191Z,17.25
2023-08-21T11:47:11.813Z,17.23
2023-08-21T11:49:39.170Z,17.20
2023-08-21T11:52:05.885Z,17.22
2023-08-21T11:54:37.214Z,17.20
2023-08-21T11:57:10.129Z,17.21
2023-08-21T11:59:37.139Z,17.22
2023-08-21T12:02:09.109Z,17.19
2023-08-21T12:04:36.238Z,17.18
2023-08-21T12:07:02.791Z,17.17
2023-08-21T12:09:29.459Z,17.11
2023-08-21T12:11:56.178Z,17.11
2023-08-21T12:14:22.792Z,17.07
2023-08-21T12:16:49.433Z,17.06
2023-08-21T12:19:16.288Z,17.21
2023-08-21T12:21:42.940Z,17.05
2023-08-21T12:24:09.552Z,17.05
2023-08-21T12:26:41.086Z,16.97
2023-08-21T12:29:15.318Z,16.92
2023-08-21T12:31:41.981Z,16.90
2023-08-21T12:34:08.631Z,16.91
2023-08-21T12:36:35.935Z,16.89
2023-08-21T12:39:02.584Z,16.84
2023-08-21T12:41:29.102Z,17.96
2023-08-21T12:43:55.724Z,19.05
2023-08-21T12:46:22.605Z,17.95
2023-08-21T12:48:49.267Z,17.60
2023-08-21T12:51:15.911Z,17.49
2023-08-21T12:53:42.545Z,17.48
2023-08-21T12:56:09.155Z,17.46
2023-08-21T12:58:35.665Z,17.42
2023-08-21T13:01:04.496Z,17.43
2023-08-21T13:03:31.275Z,17.43
2023-08-21T13:05:57.945Z,17.37
2023-08-21T13:08:24.638Z,17.40
2023-08-21T13:10:51.753Z,17.38
2023-08-21T13:13:18.379Z,17.31
2023-08-21T13:15:46.153Z,17.31
2023-08-21T13:18:13.155Z,17.49
2023-08-21T13:20:39.867Z,17.33
2023-08-21T13:23:06.387Z,17.29
2023-08-21T13:25:32.977Z,17.27
2023-08-21T13:28:01.264Z,17.21
2023-08-21T13:30:27.963Z,17.17
2023-08-21T13:32:55.255Z,17.14
2023-08-21T13:35:23.915Z,17.11
2023-08-21T13:37:51.118Z,17.10
2023-08-21T13:40:17.975Z,17.04
2023-08-21T13:42:45.085Z,17.01
2023-08-21T13:45:14.997Z,17.02
2023-08-21T13:47:42.319Z,16.92
2023-08-21T13:50:09.678Z,16.92
2023-08-21T13:52:36.342Z,16.92
2023-08-21T13:55:04.002Z,16.93
2023-08-21T13:57:30.599Z,16.92
2023-08-21T13:59:57.166Z,16.89
2023-08-21T14:02:24.449Z,16.88
2023-08-21T14:04:51.220Z,16.89
2023-08-21T14:07:17.938Z,16.87
2023-08-21T14:09:44.544Z,17.36
2023-08-21T14:12:11.084Z,19.03
2023-08-21T14:14:38.611Z,18.26
2023-08-21T14:17:05.476Z,17.59
2023-08-21T14:19:32.408Z,17.47
2023-08-21T14:21:59.300Z,17.41
2023-08-21T14:24:26.069Z,17.41
2023-08-21T14:26:52.790Z,17.36
2023-08-21T14:29:19.496Z,17.42
2023-08-21T14:31:51.406Z,17.32
2023-08-21T14:34:18.093Z,17.26
2023-08-21T14:36:44.730Z,17.25
2023-08-21T14:39:14.130Z,17.24
2023-08-21T14:41:42.418Z,17.18
2023-08-21T14:44:09.185Z,17.14
2023-08-21T14:49:06.955Z,17.07
2023-08-21T14:51:33.546Z,17.57
2023-08-21T14:54:00.103Z,19.20
2023-08-21T14:56:26.695Z,18.50
2023-08-21T14:58:53.287Z,17.83
2023-08-21T15:01:19.810Z,17.60
2023-08-21T15:03:46.439Z,17.55
2023-08-21T15:06:14.397Z,17.49
2023-08-21T15:08:41.081Z,17.48
2023-08-21T15:11:07.644Z,17.38
2023-08-21T15:13:34.158Z,17.36
2023-08-21T15:16:00.758Z,17.35
2023-08-21T15:18:27.308Z,17.31
2023-08-21T15:20:53.862Z,17.23
2023-08-21T15:23:20.339Z,17.17
2023-08-21T15:25:47.008Z,17.09
2023-08-21T15:28:13.474Z,17.07
2023-08-21T15:30:40.409Z,17.03
2023-08-21T15:33:07.071Z,17.01
2023-08-21T15:35:33.587Z,17.05
2023-08-21T15:38:00.159Z,18.77
2023-08-21T15:40:26.808Z,19.01
2023-08-21T15:42:53.385Z,17.84
2023-08-21T15:45:19.992Z,17.60
2023-08-21T15:47:49.255Z,17.48
2023-08-21T15:50:16.715Z,17.50
2023-08-21T15:52:43.269Z,17.41
2023-08-21T15:55:09.864Z,17.37
2023-08-21T15:57:36.446Z,17.32
2023-08-21T16:00:04.881Z,17.30
2023-08-21T16:02:31.489Z,17.27
2023-08-21T16:04:58.110Z,17.22
2023-08-21T16:07:24.632Z,17.15
2023-08-21T16:09:51.181Z,17.15
2023-08-21T16:12:17.751Z,17.08
2023-08-21T16:14:44.266Z,16.98
2023-08-21T16:17:10.745Z,17.01
2023-08-21T16:19:37.734Z,16.99
2023-08-21T16:22:04.715Z,17.03
2023-08-21T16:24:31.387Z,16.94
2023-08-21T16:26:57.936Z,16.89
2023-08-21T16:29:24.472Z,16.90
2023-08-21T16:31:51.277Z,16.90
2023-08-21T16:34:17.833Z,16.86
2023-08-21T16:36:44.454Z,16.79
2023-08-21T16:39:11.101Z,17.63
2023-08-21T16:41:37.666Z,19.07
2023-08-21T16:44:04.389Z,18.09
2023-08-21T16:46:30.955Z,17.59
2023-08-21T16:48:57.506Z,17.48
2023-08-21T16:51:24.027Z,17.42
2023-08-21T16:53:50.580Z,17.37
2023-08-21T16:56:17.351Z,17.33
2023-08-21T16:58:43.940Z,17.31
2023-08-21T17:01:10.585Z,17.30
2023-08-21T17:03:37.230Z,17.29
2023-08-21T17:06:03.788Z,17.28
2023-08-21T17:08:30.325Z,17.28
2023-08-21T17:10:56.871Z,17.20
2023-08-21T17:13:23.431Z,17.18
2023-08-21T17:15:52.104Z,17.20
2023-08-21T17:18:20.284Z,17.14
2023-08-21T17:20:46.862Z,17.11
2023-08-21T17:23:13.413Z,17.12
2023-08-21T17:25:39.954Z,17.05
2023-08-21T17:28:06.490Z,16.98
2023-08-21T17:30:33.506Z,16.98
2023-08-21T17:33:00.170Z,16.96
2023-08-21T17:35:28.641Z,16.97
2023-08-21T17:37:55.539Z,16.94
2023-08-21T17:40:22.386Z,16.87
2023-08-21T17:42:48.904Z,16.90
2023-08-21T17:45:15.569Z,16.86
2023-08-21T17:47:42.290Z,16.85
2023-08-21T17:50:09.125Z,17.08
2023-08-21T17:52:35.660Z,18.90
2023-08-21T17:55:02.246Z,18.47
2023-08-21T17:57:28.872Z,17.65
2023-08-21T17:59:55.669Z,17.52
2023-08-21T18:02:27.220Z,17.50
2023-08-21T18:04:54.456Z,17.47
2023-08-21T18:07:21.231Z,17.42
2023-08-21T18:09:47.791Z,17.34
2023-08-21T18:12:14.389Z,17.35
2023-08-21T18:14:40.987Z,17.33
2023-08-21T18:17:14.413Z,17.33
2023-08-21T18:19:47.670Z,17.32
2023-08-21T18:22:14.776Z,17.29
2023-08-21T18:24:41.448Z,17.24
2023-08-21T18:27:07.964Z,17.19
2023-08-21T18:29:38.582Z,17.15
2023-08-21T18:32:05.397Z,17.15
2023-08-21T18:34:31.991Z,17.15
2023-08-21T18:37:00.367Z,17.11
2023-08-21T18:39:26.924Z,17.04
2023-08-21T18:41:53.818Z,17.03
2023-08-21T18:44:20.428Z,16.96
2023-08-21T18:46:47.010Z,16.96
2023-08-21T18:49:13.592Z,16.89
2023-08-21T18:51:40.150Z,16.91
2023-08-21T18:54:06.684Z,16.87
2023-08-21T18:56:35.126Z,18.30
2023-08-21T18:59:02.819Z,19.23
2023-08-21T19:01:29.393Z,17.90
2023-08-21T19:03:56.174Z,17.63
2023-08-21T19:06:22.760Z,17.57
2023-08-21T19:08:49.307Z,17.49
2023-08-21T19:11:15.953Z,17.48
2023-08-21T19:13:42.561Z,17.43
2023-08-21T19:16:09.133Z,17.35
2023-08-21T19:18:36.362Z,17.39
2023-08-21T19:21:03.368Z,17.38
2023-08-21T19:23:29.971Z,17.39
2023-08-21T19:25:56.537Z,17.31
2023-08-21T19:28:23.078Z,17.29
2023-08-21T19:30:50.564Z,17.29
2023-08-21T19:33:17.978Z,17.27
2023-08-21T19:35:44.447Z,17.27
2023-08-21T19:38:12.830Z,17.27
2023-08-21T19:40:39.393Z,17.25
2023-08-21T19:43:06.164Z,17.17
2023-08-21T19:45:32.868Z,17.13
2023-08-21T19:47:59.585Z,17.13
2023-08-21T19:50:26.100Z,17.12
2023-08-21T19:52:52.691Z,17.12
2023-08-21T19:55:21.560Z,17.11
2023-08-21T19:57:48.103Z,16.96
2023-08-21T20:00:14.826Z,16.99
2023-08-21T20:02:41.604Z,16.98
2023-08-21T20:05:08.767Z,16.95
2023-08-21T20:07:35.332Z,17.04
2023-08-21T20:10:01.800Z,17.02
2023-08-21T20:12:28.345Z,16.97
2023-08-21T20:14:58.341Z,16.90
2023-08-21T20:17:29.610Z,16.96
2023-08-21T20:19:57.189Z,16.88
2023-08-21T20:22:23.766Z,16.96
2023-08-21T20:24:50.369Z,16.87
2023-08-21T20:27:16.912Z,16.90
2023-08-21T20:29:43.491Z,16.88
2023-08-21T20:32:10.030Z,16.86
2023-08-21T20:34:36.639Z,18.19
2023-08-21T20:37:03.295Z,19.14
2023-08-21T20:39:29.818Z,17.86
2023-08-21T20:41:57.545Z,17.54
2023-08-21T20:44:24.099Z,17.47
2023-08-21T20:46:50.643Z,17.51
2023-08-21T20:49:17.223Z,17.51
2023-08-21T20:51:43.826Z,17.44
2023-08-21T20:54:10.466Z,17.39
2023-08-21T20:56:37.041Z,17.39
2023-08-21T20:59:03.530Z,17.35
2023-08-21T21:01:30.195Z,17.35
2023-08-21T21:03:56.808Z,17.31
2023-08-21T21:06:23.321Z,17.32
2023-08-21T21:08:49.918Z,17.23
2023-08-21T21:11:16.468Z,17.25
2023-08-21T21:13:43.120Z,17.26
2023-08-21T21:16:09.753Z,17.25
2023-08-21T21:18:36.224Z,17.22
2023-08-21T21:21:02.761Z,17.17
2023-08-21T21:23:29.823Z,17.16
2023-08-21T21:25:59.854Z,17.16
2023-08-21T21:28:26.361Z,17.15
2023-08-21T21:30:59.041Z,17.07
2023-08-21T21:33:26.431Z,17.06
2023-08-21T21:35:56.325Z,17.03
2023-08-21T21:38:26.750Z,17.03
2023-08-21T21:40:56.516Z,16.99
2023-08-21T21:43:25.149Z,16.92
2023-08-21T21:46:00.816Z,16.92
2023-08-21T21:48:27.870Z,16.96
2023-08-21T21:50:54.571Z,16.88
2023-08-21T21:53:24.058Z,16.92
2023-08-21T21:55:50.655Z,16.92
2023-08-21T21:58:17.204Z,16.86
2023-08-21T22:00:43.770Z,16.93
2023-08-21T22:03:10.377Z,16.89
2023-08-21T22:05:36.974Z,16.90
2023-08-21T22:08:04.449Z,16.88
2023-08-21T22:10:31.859Z,17.00
2023-08-21T22:12:58.662Z,18.76
2023-08-21T22:15:25.144Z,18.74
2023-08-21T22:17:52.547Z,17.80
2023-08-21T22:20:19.317Z,17.67
2023-08-21T22:22:45.828Z,17.60
2023-08-21T22:25:12.368Z,17.57
2023-08-21T22:27:39.212Z,17.59
2023-08-21T22:30:06.284Z,17.52
2023-08-21T22:32:32.836Z,17.50
2023-08-21T22:34:59.557Z,17.47
2023-08-21T22:37:26.205Z,17.42
2023-08-21T22:39:52.752Z,17.42
2023-08-21T22:42:19.231Z,17.39
2023-08-21T22:44:45.836Z,17.41
2023-08-21T22:47:15.140Z,17.35
2023-08-21T22:49:42.369Z,17.34
2023-08-21T22:52:08.928Z,17.37
2023-08-21T22:54:35.513Z,17.32
2023-08-21T22:57:01.997Z,17.31
2023-08-21T22:59:28.500Z,17.32
2023-08-21T23:01:55.029Z,17.27
2023-08-21T23:04:21.559Z,17.31
2023-08-21T23:06:48.120Z,17.29
2023-08-21T23:09:16.292Z,17.23
2023-08-21T23:11:42.789Z,17.22
2023-08-21T23:14:09.379Z,17.24
2023-08-21T23:16:36.447Z,17.17
2023-08-21T23:19:03.129Z,17.16
2023-08-21T23:21:29.696Z,17.13
2023-08-21T23:23:56.422Z,17.15
2023-08-21T23:26:22.914Z,17.17
2023-08-21T23:28:49.519Z,17.10
2023-08-21T23:31:16.035Z,17.11
2023-08-21T23:33:42.692Z,17.11
2023-08-21T23:36:09.241Z,17.00
2023-08-21T23:38:35.809Z,17.03
2023-08-21T23:41:02.368Z,17.04
2023-08-21T23:43:28.905Z,17.01
2023-08-21T23:45:55.409Z,17.02
2023-08-21T23:48:22.033Z,17.00
2023-08-21T23:50:48.564Z,16.92
2023-08-21T23:53:15.061Z,16.97
2023-08-21T23:55:42.241Z,16.94
2023-08-21T23:58:08.742Z,16.97
